createdAt,value
2022-09-23T00:02:12.434Z,7.64
2022-09-23T00:04:41.502Z,7.53
2022-09-23T00:07:10.906Z,7.78
2022-09-23T00:09:38.865Z,7.77
2022-09-23T00:12:09.170Z,7.76
2022-09-23T00:14:38.872Z,7.82
2022-09-23T00:17:07.112Z,7.72
2022-09-23T00:19:35.332Z,7.69
2022-09-23T00:22:03.193Z,7.76
2022-09-23T00:24:33.290Z,7.68
2022-09-23T00:27:01.440Z,7.51
2022-09-23T00:29:29.368Z,7.62
2022-09-23T00:31:57.123Z,7.79
2022-09-23T00:34:25.240Z,7.76
2022-09-23T00:36:53.154Z,7.78
2022-09-23T00:39:20.914Z,7.74
2022-09-23T00:41:50.182Z,7.69
2022-09-23T00:44:44.773Z,7.64
2022-09-23T00:47:22.586Z,7.60
2022-09-23T00:50:00.225Z,7.62
2022-09-23T00:52:28.449Z,7.66
2022-09-23T00:54:59.633Z,7.79
2022-09-23T00:57:30.713Z,7.81
2022-09-23T00:59:58.921Z,7.71
2022-09-23T01:02:28.325Z,7.65
2022-09-23T01:04:56.417Z,7.86
2022-09-23T01:07:24.285Z,7.82
2022-09-23T01:09:52.219Z,7.80
2022-09-23T01:12:35.442Z,7.80
2022-09-23T01:15:13.369Z,7.71
2022-09-23T01:17:50.406Z,7.72
2022-09-23T01:20:57.048Z,7.50
2022-09-23T01:24:09.093Z,7.65
2022-09-23T01:27:00.225Z,7.57
2022-09-23T01:30:07.836Z,7.61
2022-09-23T01:32:57.488Z,7.69
2022-09-23T01:35:31.425Z,7.70
2022-09-23T01:38:12.280Z,7.61
2022-09-23T01:40:50.495Z,7.58
2022-09-23T01:43:28.841Z,7.58
2022-09-23T01:46:00.378Z,7.64
2022-09-23T01:48:36.646Z,7.72
2022-09-23T01:51:09.631Z,7.60
2022-09-23T01:53:44.990Z,7.60
2022-09-23T01:56:18.889Z,7.70
2022-09-23T01:58:53.831Z,7.80
2022-09-23T02:01:31.160Z,7.76
2022-09-23T02:04:05.381Z,7.75
2022-09-23T02:06:39.345Z,7.82
2022-09-23T02:09:12.054Z,7.74
2022-09-23T02:11:45.407Z,7.79
2022-09-23T02:14:18.663Z,7.76
2022-09-23T02:16:50.560Z,7.87
2022-09-23T02:19:25.518Z,7.71
2022-09-23T02:21:59.741Z,7.82
2022-09-23T02:24:31.615Z,7.66
2022-09-23T02:27:04.239Z,7.79
2022-09-23T02:29:41.857Z,7.65
2022-09-23T02:32:18.927Z,7.62
2022-09-23T02:34:59.500Z,7.40
2022-09-23T02:37:38.887Z,7.29
2022-09-23T02:40:17.329Z,7.23
2022-09-23T02:42:53.303Z,7.10
2022-09-23T02:45:21.237Z,7.19
2022-09-23T02:47:53.812Z,7.07
2022-09-23T02:50:23.348Z,7.06
2022-09-23T02:52:52.320Z,7.07
2022-09-23T02:55:24.496Z,6.99
2022-09-23T02:57:53.508Z,6.79
2022-09-23T03:00:21.857Z,6.93
2022-09-23T03:03:05.324Z,7.07
2022-09-23T03:05:40.173Z,6.92
2022-09-23T03:08:25.998Z,7.02
2022-09-23T03:11:01.874Z,6.90
2022-09-23T03:13:36.482Z,6.90
2022-09-23T03:16:15.987Z,6.84
2022-09-23T03:18:51.598Z,6.66
2022-09-23T03:21:26.150Z,6.67
2022-09-23T03:23:57.247Z,6.90
2022-09-23T03:26:30.073Z,6.88
2022-09-23T03:28:59.397Z,6.71
2022-09-23T03:31:27.454Z,6.72
2022-09-23T03:34:01.853Z,6.61
2022-09-23T03:36:56.984Z,6.63
2022-09-23T03:39:32.498Z,6.67
2022-09-23T03:42:04.696Z,6.38
2022-09-23T03:44:39.092Z,6.32
2022-09-23T03:47:07.606Z,6.17
2022-09-23T03:49:41.192Z,5.96
2022-09-23T03:52:11.123Z,6.28
2022-09-23T03:54:39.053Z,6.04
2022-09-23T03:57:07.264Z,6.07
2022-09-23T03:59:35.272Z,6.16
2022-09-23T04:02:10.636Z,6.16
2022-09-23T04:04:41.135Z,6.09
2022-09-23T04:07:11.319Z,6.14
2022-09-23T04:09:39.830Z,6.37
2022-09-23T04:12:08.450Z,6.16
2022-09-23T04:14:36.357Z,6.15
2022-09-23T04:17:04.651Z,6.44
2022-09-23T04:19:32.634Z,6.48
2022-09-23T04:22:01.329Z,6.44
2022-09-23T04:24:30.543Z,6.45
2022-09-23T04:27:00.260Z,6.37
2022-09-23T04:29:28.895Z,6.38
2022-09-23T04:31:57.830Z,6.33
2022-09-23T04:34:25.888Z,6.29
2022-09-23T04:36:53.965Z,6.34
2022-09-23T04:39:22.069Z,6.39
2022-09-23T04:41:51.478Z,6.58
2022-09-23T04:44:21.038Z,6.55
2022-09-23T04:46:49.346Z,6.67
2022-09-23T04:49:17.765Z,6.51
2022-09-23T04:51:45.733Z,6.63
2022-09-23T04:54:16.706Z,6.60
2022-09-23T04:56:44.610Z,6.85
2022-09-23T04:59:13.800Z,6.89
2022-09-23T05:01:42.415Z,7.07
2022-09-23T05:04:14.321Z,6.98
2022-09-23T05:06:43.978Z,6.80
2022-09-23T05:09:17.298Z,6.86
2022-09-23T05:11:48.285Z,7.12
2022-09-23T05:14:17.569Z,6.96
2022-09-23T05:16:45.529Z,7.10
2022-09-23T05:19:16.464Z,7.17
2022-09-23T05:21:46.793Z,7.02
2022-09-23T05:24:15.014Z,6.97
2022-09-23T05:26:43.310Z,6.88
2022-09-23T05:29:11.534Z,6.96
2022-09-23T05:31:41.254Z,7.03
2022-09-23T05:34:09.395Z,7.03
2022-09-23T05:36:39.133Z,7.06
2022-09-23T05:39:08.423Z,7.14
2022-09-23T05:41:40.733Z,7.36
2022-09-23T05:44:08.790Z,7.35
2022-09-23T05:46:37.122Z,7.45
2022-09-23T05:49:07.301Z,7.52
2022-09-23T05:51:36.104Z,7.51
2022-09-23T05:54:05.682Z,7.81
2022-09-23T05:56:35.190Z,7.82
2022-09-23T05:59:04.510Z,8.01
2022-09-23T06:01:34.382Z,8.11
2022-09-23T06:04:05.174Z,8.15
2022-09-23T06:06:37.023Z,8.30
2022-09-23T06:09:05.821Z,8.42
2022-09-23T06:11:35.818Z,8.48
2022-09-23T06:14:04.431Z,8.71
2022-09-23T06:16:34.530Z,8.83
2022-09-23T06:19:06.230Z,8.85
2022-09-23T06:21:38.530Z,9.04
2022-09-23T06:24:15.830Z,9.16
2022-09-23T06:26:44.991Z,9.74
2022-09-23T06:29:13.518Z,10.27
2022-09-23T06:31:42.386Z,10.74
2022-09-23T06:34:13.932Z,11.10
2022-09-23T06:36:46.190Z,11.51
2022-09-23T06:39:15.457Z,11.15
2022-09-23T06:41:45.452Z,10.91
2022-09-23T06:44:14.127Z,11.07
2022-09-23T06:46:42.196Z,11.21
2022-09-23T06:49:12.977Z,11.18
2022-09-23T06:51:41.432Z,11.25
2022-09-23T06:54:11.263Z,11.27
2022-09-23T06:56:39.938Z,11.13
2022-09-23T06:59:08.934Z,11.44
2022-09-23T07:01:36.960Z,11.27
2022-09-23T07:04:05.421Z,11.02
2022-09-23T07:06:33.413Z,11.15
2022-09-23T07:09:01.827Z,11.34
2022-09-23T07:11:32.118Z,11.15
2022-09-23T07:14:01.698Z,11.12
2022-09-23T07:16:31.629Z,11.29
2022-09-23T07:19:08.794Z,11.29
2022-09-23T07:21:36.844Z,11.52
2022-09-23T07:25:09.592Z,11.59
2022-09-23T07:27:38.818Z,11.60
2022-09-23T07:30:14.095Z,11.53
2022-09-23T07:32:49.177Z,11.68
2022-09-23T07:35:17.917Z,11.71
2022-09-23T07:37:48.187Z,11.79
2022-09-23T07:40:18.734Z,11.84
2022-09-23T07:42:48.176Z,11.92
2022-09-23T07:45:16.385Z,12.04
2022-09-23T07:47:45.831Z,11.90
2022-09-23T07:50:14.800Z,12.07
2022-09-23T07:52:42.963Z,12.21
2022-09-23T07:55:11.178Z,12.25
2022-09-23T07:57:39.248Z,12.67
2022-09-23T08:00:10.377Z,12.73
2022-09-23T08:02:38.738Z,12.80
2022-09-23T08:05:07.878Z,13.01
2022-09-23T08:07:36.011Z,13.17
2022-09-23T08:10:04.036Z,13.02
2022-09-23T08:12:32.003Z,13.11
2022-09-23T08:15:00.989Z,13.19
2022-09-23T08:17:30.411Z,13.18
2022-09-23T08:20:01.436Z,13.69
2022-09-23T08:22:29.926Z,13.91
2022-09-23T08:25:01.729Z,14.15
2022-09-23T08:27:32.283Z,14.61
2022-09-23T08:30:01.466Z,14.37
2022-09-23T08:32:31.747Z,14.77
2022-09-23T08:34:59.852Z,14.90
2022-09-23T08:37:27.979Z,14.80
2022-09-23T08:39:55.883Z,15.07
2022-09-23T08:42:29.442Z,15.47
2022-09-23T08:45:01.854Z,15.16
2022-09-23T08:47:47.133Z,15.69
2022-09-23T08:50:20.222Z,15.50
2022-09-23T08:52:52.829Z,15.31
2022-09-23T08:55:24.483Z,15.17
2022-09-23T08:58:24.341Z,15.28
2022-09-23T09:01:12.832Z,15.50
2022-09-23T09:03:49.427Z,15.06
2022-09-23T09:06:22.265Z,15.46
2022-09-23T09:08:56.042Z,15.17
2022-09-23T09:11:31.547Z,15.55
2022-09-23T09:14:06.870Z,15.13
2022-09-23T09:17:01.783Z,15.01
2022-09-23T09:19:53.902Z,15.39
2022-09-23T09:22:26.094Z,15.14
2022-09-23T09:25:00.018Z,15.32
2022-09-23T09:27:28.073Z,15.33
2022-09-23T09:29:56.585Z,15.50
2022-09-23T09:32:36.495Z,15.61
2022-09-23T09:35:20.144Z,15.65
2022-09-23T09:37:48.901Z,15.24
2022-09-23T09:40:18.244Z,15.58
2022-09-23T09:42:49.672Z,15.80
2022-09-23T09:45:28.909Z,16.15
2022-09-23T09:48:08.039Z,15.69
2022-09-23T09:50:49.228Z,15.78
2022-09-23T09:53:24.021Z,15.49
2022-09-23T09:56:05.792Z,16.07
2022-09-23T09:58:46.205Z,15.71
2022-09-23T10:01:25.725Z,16.24
2022-09-23T10:03:56.869Z,16.30
2022-09-23T10:06:29.836Z,16.08
2022-09-23T10:09:17.227Z,16.12
2022-09-23T10:12:04.253Z,16.13
2022-09-23T10:14:32.196Z,16.33
2022-09-23T10:17:05.605Z,16.15
2022-09-23T10:19:37.331Z,16.33
2022-09-23T10:22:23.542Z,16.01
2022-09-23T10:24:54.896Z,16.34
2022-09-23T10:27:35.340Z,16.31
2022-09-23T10:30:08.185Z,16.48
2022-09-23T10:32:38.777Z,16.52
2022-09-23T10:35:18.726Z,16.52
2022-09-23T10:37:52.369Z,16.55
2022-09-23T10:40:46.048Z,16.54
2022-09-23T10:43:44.188Z,16.65
2022-09-23T10:46:39.299Z,16.80
2022-09-23T10:49:32.377Z,16.41
2022-09-23T10:52:11.584Z,17.12
2022-09-23T10:54:58.004Z,17.07
2022-09-23T10:57:43.701Z,17.55
2022-09-23T11:00:23.671Z,17.22
2022-09-23T11:03:09.484Z,17.57
2022-09-23T11:05:43.379Z,17.44
2022-09-23T11:08:30.348Z,17.35
2022-09-23T11:11:34.677Z,17.41
2022-09-23T11:14:17.217Z,16.90
2022-09-23T11:17:14.669Z,16.62
2022-09-23T11:20:09.485Z,17.05
2022-09-23T11:22:55.430Z,17.29
2022-09-23T11:25:33.841Z,17.13
2022-09-23T11:28:23.506Z,16.75
2022-09-23T11:31:01.375Z,16.74
2022-09-23T11:33:44.529Z,16.45
2022-09-23T11:36:19.557Z,16.50
2022-09-23T11:38:51.938Z,16.80
2022-09-23T11:41:26.969Z,16.54
2022-09-23T11:44:04.521Z,16.27
2022-09-23T11:46:37.128Z,16.51
2022-09-23T11:49:11.106Z,16.46
2022-09-23T11:51:43.659Z,16.49
2022-09-23T11:54:20.590Z,16.24
2022-09-23T11:56:54.475Z,16.56
2022-09-23T11:59:39.671Z,16.67
2022-09-23T12:02:22.986Z,16.57
2022-09-23T12:05:01.434Z,16.56
2022-09-23T12:07:40.679Z,16.75
2022-09-23T12:10:11.206Z,16.52
2022-09-23T12:12:50.622Z,16.38
2022-09-23T12:15:34.398Z,16.24
2022-09-23T12:18:27.553Z,16.30
2022-09-23T12:21:45.802Z,16.64
2022-09-23T12:24:45.271Z,16.77
2022-09-23T12:27:24.351Z,16.51
2022-09-23T12:29:57.669Z,16.53
2022-09-23T12:32:30.607Z,16.62
2022-09-23T12:35:02.742Z,16.45
2022-09-23T12:37:35.924Z,16.41
2022-09-23T12:40:09.325Z,16.30
2022-09-23T12:42:44.735Z,16.19
2022-09-23T12:45:35.173Z,16.14
2022-09-23T12:48:05.946Z,16.03
2022-09-23T12:50:52.190Z,16.14
2022-09-23T12:53:57.920Z,16.29
2022-09-23T12:56:29.880Z,16.18
2022-09-23T12:59:24.068Z,16.06
2022-09-23T13:01:52.556Z,16.00
2022-09-23T13:04:51.555Z,15.91
2022-09-23T13:07:26.426Z,15.81
2022-09-23T13:10:02.708Z,15.55
2022-09-23T13:12:33.748Z,15.60
2022-09-23T13:15:06.352Z,15.26
2022-09-23T13:17:37.837Z,15.13
2022-09-23T13:20:29.221Z,14.98
2022-09-23T13:23:07.087Z,15.02
2022-09-23T13:25:46.013Z,15.07
2022-09-23T13:28:27.225Z,14.91
2022-09-23T13:30:55.498Z,14.98
2022-09-23T13:33:38.027Z,14.96
2022-09-23T13:36:13.161Z,14.79
2022-09-23T13:38:42.674Z,14.66
2022-09-23T13:41:15.465Z,14.84
2022-09-23T13:43:46.295Z,15.12
2022-09-23T13:46:18.690Z,14.79
2022-09-23T13:48:48.759Z,14.75
2022-09-23T13:51:22.950Z,14.64
2022-09-23T13:53:56.649Z,14.86
2022-09-23T13:56:26.258Z,14.90
2022-09-23T13:58:55.879Z,14.81
2022-09-23T14:01:30.674Z,14.74
2022-09-23T14:03:58.734Z,14.68
2022-09-23T14:06:28.208Z,14.58
2022-09-23T14:09:01.251Z,14.81
2022-09-23T14:11:31.621Z,14.68
2022-09-23T14:14:07.637Z,14.72
2022-09-23T14:16:41.182Z,14.73
2022-09-23T14:19:14.829Z,14.50
2022-09-23T14:21:42.960Z,14.72
2022-09-23T14:24:17.594Z,14.57
2022-09-23T14:26:49.669Z,14.53
2022-09-23T14:29:20.297Z,14.56
2022-09-23T14:31:57.180Z,14.68
2022-09-23T14:34:45.789Z,14.74
2022-09-23T14:37:39.668Z,15.21
2022-09-23T14:40:15.515Z,15.35
2022-09-23T14:42:49.117Z,15.08
2022-09-23T14:45:20.614Z,15.17
2022-09-23T14:47:51.200Z,15.22
2022-09-23T14:50:38.747Z,15.26
2022-09-23T14:53:38.799Z,15.23
2022-09-23T14:56:16.902Z,14.94
2022-09-23T14:58:52.884Z,15.07
2022-09-23T15:01:39.046Z,14.91
2022-09-23T15:04:30.462Z,14.97
2022-09-23T15:07:01.649Z,14.93
2022-09-23T15:09:32.744Z,14.89
2022-09-23T15:12:09.183Z,15.03
2022-09-23T15:14:41.266Z,15.05
2022-09-23T15:17:25.434Z,15.01
2022-09-23T15:19:56.887Z,14.89
2022-09-23T15:22:26.628Z,14.75
2022-09-23T15:24:55.866Z,14.70
2022-09-23T15:27:34.145Z,14.74
2022-09-23T15:30:14.868Z,14.77
2022-09-23T15:32:43.458Z,14.68
2022-09-23T15:35:16.642Z,14.62
2022-09-23T15:37:45.007Z,14.69
2022-09-23T15:40:20.938Z,14.58
2022-09-23T15:42:52.666Z,14.59
2022-09-23T15:45:34.718Z,14.66
2022-09-23T15:48:08.189Z,14.40
2022-09-23T15:50:41.236Z,14.33
2022-09-23T15:57:13.373Z,14.13
2022-09-23T15:59:44.199Z,14.24
2022-09-23T16:02:21.346Z,13.96
2022-09-23T16:04:50.353Z,13.99
2022-09-23T16:07:21.102Z,14.03
2022-09-23T16:09:50.524Z,14.08
2022-09-23T16:12:18.851Z,13.92
2022-09-23T16:14:48.476Z,13.91
2022-09-23T16:17:18.554Z,13.90
2022-09-23T16:19:46.624Z,13.85
2022-09-23T16:22:16.691Z,13.84
2022-09-23T16:24:44.948Z,13.77
2022-09-23T16:27:17.953Z,13.85
2022-09-23T16:29:45.969Z,13.78
2022-09-23T16:32:21.460Z,13.87
2022-09-23T16:34:50.027Z,13.89
2022-09-23T16:37:18.042Z,13.90
2022-09-23T16:39:46.875Z,13.85
2022-09-23T16:42:14.874Z,13.81
2022-09-23T16:44:42.852Z,13.77
2022-09-23T16:47:10.800Z,13.75
2022-09-23T16:49:40.084Z,13.70
2022-09-23T16:52:12.871Z,13.69
2022-09-23T16:54:42.279Z,13.64
2022-09-23T16:57:13.098Z,13.67
2022-09-23T16:59:59.875Z,13.52
2022-09-23T17:02:56.752Z,13.57
2022-09-23T17:05:27.502Z,13.53
2022-09-23T17:07:55.399Z,13.52
2022-09-23T17:10:24.039Z,13.51
2022-09-23T17:12:54.488Z,13.50
2022-09-23T17:15:22.563Z,13.46
2022-09-23T17:17:50.451Z,13.44
2022-09-23T17:20:18.549Z,13.44
2022-09-23T17:22:48.286Z,13.46
2022-09-23T17:25:16.492Z,13.47
2022-09-23T17:27:44.411Z,13.38
2022-09-23T17:30:14.681Z,13.40
2022-09-23T17:32:42.693Z,13.38
2022-09-23T17:35:11.569Z,13.36
2022-09-23T17:37:39.692Z,13.38
2022-09-23T17:40:10.515Z,13.35
2022-09-23T17:42:41.107Z,13.33
2022-09-23T17:45:10.315Z,13.30
2022-09-23T17:47:41.820Z,13.31
2022-09-23T17:50:10.435Z,13.27
2022-09-23T17:52:39.979Z,13.28
2022-09-23T17:55:12.103Z,13.27
2022-09-23T17:57:40.995Z,13.18
2022-09-23T18:00:10.645Z,13.19
2022-09-23T18:02:38.773Z,13.15
2022-09-23T18:05:07.811Z,13.13
2022-09-23T18:07:35.735Z,13.10
2022-09-23T18:10:03.778Z,13.13
2022-09-23T18:12:33.018Z,13.08
2022-09-23T18:15:01.179Z,13.07
2022-09-23T18:17:32.395Z,13.12
2022-09-23T18:20:00.423Z,13.10
2022-09-23T18:22:28.577Z,13.16
2022-09-23T18:24:59.550Z,13.18
2022-09-23T18:27:27.721Z,12.97
2022-09-23T18:29:57.190Z,13.08
2022-09-23T18:32:27.966Z,13.01
2022-09-23T18:34:56.196Z,13.07
2022-09-23T18:37:24.373Z,12.98
2022-09-23T18:39:52.401Z,13.00
2022-09-23T18:42:20.745Z,12.97
2022-09-23T18:44:54.286Z,12.96
2022-09-23T18:47:37.968Z,12.89
2022-09-23T18:50:24.373Z,12.90
2022-09-23T18:52:55.091Z,12.86
2022-09-23T18:55:23.263Z,12.93
2022-09-23T18:57:51.457Z,12.78
2022-09-23T19:00:20.402Z,12.82
2022-09-23T19:02:49.741Z,12.70
2022-09-23T19:05:19.065Z,12.72
2022-09-23T19:07:46.974Z,12.73
2022-09-23T19:10:16.512Z,12.64
2022-09-23T19:12:47.026Z,12.71
2022-09-23T19:15:15.249Z,12.58
2022-09-23T19:17:43.186Z,12.64
2022-09-23T19:20:16.014Z,12.60
2022-09-23T19:22:47.226Z,12.57
2022-09-23T19:25:17.613Z,12.49
2022-09-23T19:27:47.977Z,12.56
2022-09-23T19:30:16.661Z,12.59
2022-09-23T19:32:46.019Z,12.56
2022-09-23T19:35:16.091Z,12.55
2022-09-23T19:37:46.031Z,12.58
2022-09-23T19:40:14.839Z,12.60
2022-09-23T19:42:43.937Z,12.49
2022-09-23T19:45:14.833Z,12.58
2022-09-23T19:47:44.436Z,12.59
2022-09-23T19:50:12.897Z,12.50
2022-09-23T19:52:42.650Z,12.54
2022-09-23T19:55:15.702Z,12.41
2022-09-23T19:57:43.839Z,12.51
2022-09-23T20:00:16.537Z,12.47
2022-09-23T20:02:44.660Z,12.60
2022-09-23T20:05:16.242Z,12.57
2022-09-23T20:07:48.009Z,12.55
2022-09-23T20:10:16.451Z,12.53
2022-09-23T20:12:44.272Z,12.55
2022-09-23T20:15:13.497Z,12.52
2022-09-23T20:17:42.942Z,12.52
2022-09-23T20:20:13.560Z,12.42
2022-09-23T20:22:42.827Z,12.43
2022-09-23T20:25:18.372Z,12.32
2022-09-23T20:27:52.669Z,12.36
2022-09-23T20:30:29.593Z,12.38
2022-09-23T20:32:59.336Z,12.39
2022-09-23T20:35:32.785Z,12.24
2022-09-23T20:38:06.009Z,12.31
2022-09-23T20:40:38.999Z,12.33
2022-09-23T20:43:08.055Z,12.21
2022-09-23T20:45:35.877Z,12.25
2022-09-23T20:48:04.395Z,12.30
2022-09-23T20:50:33.393Z,12.31
2022-09-23T20:53:01.388Z,12.28
2022-09-23T20:55:32.626Z,12.23
2022-09-23T20:58:03.527Z,12.30
2022-09-23T21:00:31.792Z,12.15
2022-09-23T21:03:00.011Z,12.19
2022-09-23T21:05:29.861Z,12.27
2022-09-23T21:08:02.631Z,12.28
2022-09-23T21:10:30.966Z,12.32
2022-09-23T21:12:59.072Z,12.22
2022-09-23T21:15:28.860Z,12.23
2022-09-23T21:17:56.738Z,12.28
2022-09-23T21:20:25.634Z,12.15
2022-09-23T21:22:53.571Z,12.25
2022-09-23T21:25:29.561Z,12.25
2022-09-23T21:27:59.037Z,12.13
2022-09-23T21:30:28.336Z,12.14
2022-09-23T21:32:56.818Z,12.01
2022-09-23T21:35:24.844Z,11.98
2022-09-23T21:37:52.845Z,12.08
2022-09-23T21:40:38.053Z,12.01
2022-09-23T21:43:05.984Z,11.95
2022-09-23T21:45:35.194Z,12.01
2022-09-23T21:48:03.516Z,12.01
2022-09-23T21:50:32.530Z,11.99
2022-09-23T21:53:06.855Z,11.96
2022-09-23T21:55:34.944Z,11.87
2022-09-23T21:58:11.648Z,11.94
2022-09-23T22:00:41.881Z,11.96
2022-09-23T22:03:09.783Z,11.89
2022-09-23T22:05:43.957Z,11.94
2022-09-23T22:08:12.284Z,11.93
2022-09-23T22:10:40.293Z,11.91
2022-09-23T22:13:12.812Z,11.83
2022-09-23T22:15:42.562Z,11.86
2022-09-23T22:18:10.440Z,11.86
2022-09-23T22:20:38.547Z,11.93
2022-09-23T22:23:06.413Z,11.94
2022-09-23T22:25:34.230Z,11.95
2022-09-23T22:28:20.873Z,11.99
2022-09-23T22:31:22.435Z,12.02
2022-09-23T22:33:50.811Z,11.98
2022-09-23T22:36:18.824Z,12.01
2022-09-23T22:38:46.581Z,12.07
2022-09-23T22:41:15.237Z,12.07
2022-09-23T22:43:43.238Z,11.97
2022-09-23T22:46:12.627Z,12.07
2022-09-23T22:48:44.221Z,12.04
2022-09-23T22:51:12.386Z,12.01
2022-09-23T22:53:40.292Z,12.03
2022-09-23T22:56:08.492Z,12.08
2022-09-23T22:58:36.380Z,12.11
2022-09-23T23:01:04.263Z,12.11
2022-09-23T23:03:34.510Z,12.14
2022-09-23T23:06:03.618Z,12.14
2022-09-23T23:08:32.230Z,12.17
2022-09-23T23:11:05.436Z,12.14
2022-09-23T23:13:34.484Z,12.14
2022-09-23T23:16:05.419Z,12.02
2022-09-23T23:18:36.071Z,12.12
2022-09-23T23:21:08.688Z,12.17
2022-09-23T23:23:41.104Z,12.06
2022-09-23T23:26:10.828Z,12.09
2022-09-23T23:28:39.215Z,12.12
2022-09-23T23:31:09.059Z,12.07
2022-09-23T23:33:39.079Z,12.14
2022-09-23T23:36:07.843Z,12.15
2022-09-23T23:38:37.924Z,12.16
2022-09-23T23:41:09.175Z,12.14
2022-09-23T23:43:37.212Z,12.19
2022-09-23T23:46:06.647Z,12.19
2022-09-23T23:48:36.159Z,12.25
2022-09-23T23:51:07.381Z,12.17
2022-09-23T23:53:37.171Z,12.27
2022-09-23T23:56:07.464Z,12.28
2022-09-23T23:58:35.684Z,12.25
